Alhaurin el Grande, Spain
Current Conditions -  °F | °C
As of 2:30 AM on Friday 28 Nov 2014 (Local Time) from LEMG Reporting Station
Moderate Rain Moderate Rain  
Wind Chill: 57°   Ceiling: Unl
Heat Index: 57°   Visibility: 4mi
Dew Point: 55°   Wind: 6mph
Humidity: 94%   Direction: 140°SE
Pressure: 29.26"   Gusts: NA
Location:  36.64°N, 4.69°W
Report Text: LEMG 280130Z 14005KT 100V170 7000 RA FEW015 SCT025 14/13 Q0991 NOSIG
Loading
Personal Weather Stations






























Interactive Weather Map New forecast layout! Learn more

10-Day Weather Forecast

Advertisements
Track Severe Weather on mobile